createdAt,value
2022-11-27T00:01:27.705Z,99897.84
2022-11-27T00:03:55.839Z,99904.81
2022-11-27T00:06:25.153Z,99907.41
2022-11-27T00:08:52.240Z,99915.22
2022-11-27T00:11:22.761Z,99915.22
2022-11-27T00:13:50.605Z,99923.03
2022-11-27T00:16:18.933Z,99922.13
2022-11-27T00:18:46.192Z,99929.09
2022-11-27T00:21:17.301Z,99925.59
2022-11-27T00:23:44.236Z,99933.41
2022-11-27T00:26:11.812Z,99936.00
2022-11-27T00:28:38.955Z,99941.19
2022-11-27T00:31:12.336Z,99935.09
2022-11-27T00:33:39.225Z,99941.19
2022-11-27T00:36:07.532Z,99949.00
2022-11-27T00:38:38.815Z,99941.16
2022-11-27T00:41:07.700Z,99941.16
2022-11-27T00:43:43.668Z,99948.97
2022-11-27T00:46:24.033Z,99953.28
2022-11-27T00:48:55.597Z,99951.50
2022-11-27T00:51:23.884Z,99952.38
2022-11-27T00:53:50.977Z,99954.94
2022-11-27T00:56:21.088Z,99957.50
2022-11-27T00:58:48.085Z,99958.38
2022-11-27T01:01:23.730Z,99958.34
2022-11-27T01:03:51.024Z,99954.84
2022-11-27T01:06:20.256Z,99956.56
2022-11-27T01:08:48.114Z,99961.78
2022-11-27T01:11:20.350Z,99957.41
2022-11-27T01:13:47.996Z,99953.09
2022-11-27T01:16:19.140Z,99953.94
2022-11-27T01:18:47.631Z,99955.66
2022-11-27T01:21:16.947Z,99959.13
2022-11-27T01:23:43.995Z,99955.63
2022-11-27T01:26:11.769Z,99955.56
2022-11-27T01:28:39.917Z,99963.34
2022-11-27T01:31:13.743Z,99961.59
2022-11-27T01:33:40.672Z,99965.94
2022-11-27T01:36:08.995Z,99967.69
2022-11-27T01:38:36.092Z,99961.56
2022-11-27T01:41:25.965Z,99962.41
2022-11-27T01:43:57.946Z,99958.06
2022-11-27T01:46:44.062Z,99959.78
2022-11-27T01:49:10.857Z,99959.75
2022-11-27T01:51:42.404Z,99957.16
2022-11-27T01:54:10.778Z,99958.03
2022-11-27T01:56:40.269Z,99958.84
2022-11-27T01:59:08.170Z,99961.41
2022-11-27T02:01:35.456Z,99957.88
2022-11-27T02:04:02.597Z,99964.78
2022-11-27T02:06:29.984Z,99963.03
2022-11-27T02:08:57.385Z,99958.63
2022-11-27T02:11:31.294Z,99969.88
2022-11-27T02:14:15.706Z,99965.50
2022-11-27T02:17:02.510Z,99974.16
2022-11-27T02:20:01.445Z,99973.31
2022-11-27T02:23:02.439Z,99974.13
2022-11-27T02:25:56.948Z,99978.47
2022-11-27T02:28:45.788Z,99970.66
2022-11-27T02:31:34.219Z,99971.50
2022-11-27T02:34:14.843Z,99976.66
2022-11-27T02:36:49.674Z,99975.72
2022-11-27T02:39:24.580Z,99984.41
2022-11-27T02:42:00.565Z,99983.53
2022-11-27T02:44:31.897Z,99990.44
2022-11-27T02:46:58.874Z,99995.66
2022-11-27T02:49:27.310Z,99989.59
2022-11-27T02:51:57.830Z,99993.97
2022-11-27T02:54:29.029Z,99990.44
2022-11-27T02:56:59.250Z,99993.03
2022-11-27T02:59:30.373Z,99995.56
2022-11-27T03:02:10.610Z,100002.47
2022-11-27T03:04:45.941Z,99997.25
2022-11-27T03:07:19.381Z,100005.03
2022-11-27T03:09:50.014Z,100000.69
2022-11-27T03:12:18.751Z,99998.09
2022-11-27T03:14:47.643Z,100000.69
2022-11-27T03:17:45.145Z,100004.97
2022-11-27T03:20:27.940Z,100009.25
2022-11-27T03:22:56.079Z,100004.94
2022-11-27T03:25:24.233Z,100001.44
2022-11-27T03:28:03.597Z,100001.47
2022-11-27T03:30:30.795Z,99994.56
2022-11-27T03:32:57.776Z,99998.91
2022-11-27T03:35:26.677Z,100004.16
2022-11-27T03:37:54.760Z,99998.97
2022-11-27T03:40:29.403Z,100006.78
2022-11-27T03:43:08.596Z,100009.31
2022-11-27T03:46:03.910Z,100017.09
2022-11-27T03:49:02.643Z,100021.44
2022-11-27T03:51:39.252Z,100022.28
2022-11-27T03:54:17.838Z,100022.25
2022-11-27T03:56:52.409Z,100020.56
2022-11-27T03:59:47.977Z,100019.66
2022-11-27T04:02:18.071Z,100020.56
2022-11-27T04:04:45.393Z,100020.56
2022-11-27T04:07:17.733Z,100027.53
2022-11-27T04:09:44.687Z,100032.69
2022-11-27T04:12:11.837Z,100036.19
2022-11-27T04:14:38.990Z,100034.44
2022-11-27T04:17:06.172Z,100040.50
2022-11-27T04:19:32.962Z,100048.28
2022-11-27T04:22:00.075Z,100037.03
2022-11-27T04:24:26.853Z,100042.19
2022-11-27T04:26:53.956Z,100033.56
2022-11-27T04:29:20.710Z,100031.84
2022-11-27T04:31:47.789Z,100034.44
2022-11-27T04:34:14.634Z,100038.78
2022-11-27T04:36:42.570Z,100037.09
2022-11-27T04:39:09.458Z,100037.13
2022-11-27T04:41:36.526Z,100037.13
2022-11-27T04:44:03.397Z,100040.59
2022-11-27T04:46:30.475Z,100041.44
2022-11-27T04:48:57.545Z,100042.34
2022-11-27T04:51:24.641Z,100039.72
2022-11-27T04:53:51.603Z,100048.34
2022-11-27T04:56:18.760Z,100050.94
2022-11-27T04:58:45.521Z,100049.25
2022-11-27T05:01:12.747Z,100054.41
2022-11-27T05:03:39.597Z,100048.38
2022-11-27T05:06:06.661Z,100051.84
2022-11-27T05:08:33.777Z,100053.56
2022-11-27T05:11:13.093Z,100046.63
2022-11-27T05:13:39.905Z,100046.56
2022-11-27T05:16:07.413Z,100048.31
2022-11-27T05:18:34.688Z,100047.44
2022-11-27T05:21:05.198Z,100056.09
2022-11-27T05:23:32.398Z,100049.19
2022-11-27T05:25:59.866Z,100049.19
2022-11-27T05:28:27.209Z,100050.94
2022-11-27T05:30:54.752Z,100061.38
2022-11-27T05:33:21.804Z,100053.53
2022-11-27T05:35:48.953Z,100062.22
2022-11-27T05:38:15.737Z,100054.41
2022-11-27T05:40:42.826Z,100056.16
2022-11-27T05:43:09.579Z,100062.25
2022-11-27T05:45:37.947Z,100066.56
2022-11-27T05:48:05.024Z,100062.22
2022-11-27T05:50:32.312Z,100067.44
2022-11-27T05:52:59.170Z,100069.19
2022-11-27T05:55:26.295Z,100070.94
2022-11-27T05:57:53.106Z,100077.00
2022-11-27T06:00:20.485Z,100072.69
2022-11-27T06:02:47.412Z,100081.34
2022-11-27T06:05:15.022Z,100074.41
2022-11-27T06:07:41.857Z,100074.41
2022-11-27T06:10:09.251Z,100079.69
2022-11-27T06:12:36.055Z,100075.44
2022-11-27T06:15:03.861Z,100083.22
2022-11-27T06:17:30.736Z,100083.22
2022-11-27T06:19:57.883Z,100091.03
2022-11-27T06:22:24.713Z,100085.84
2022-11-27T06:24:51.734Z,100085.06
2022-11-27T06:27:18.591Z,100087.66
2022-11-27T06:29:45.669Z,100084.22
2022-11-27T06:32:12.499Z,100083.38
2022-11-27T06:34:39.812Z,100082.47
2022-11-27T06:37:11.820Z,100081.59
2022-11-27T06:39:40.189Z,100090.25
2022-11-27T06:42:06.968Z,100087.69
2022-11-27T06:44:34.080Z,100086.81
2022-11-27T06:47:00.958Z,100088.59
2022-11-27T06:49:27.984Z,100086.84
2022-11-27T06:51:54.725Z,100087.69
2022-11-27T06:54:21.917Z,100085.09
2022-11-27T06:56:52.155Z,100098.13
2022-11-27T06:59:19.809Z,100086.88
2022-11-27T07:01:46.626Z,100083.44
2022-11-27T07:04:14.836Z,100083.47
2022-11-27T07:06:42.498Z,100082.59
2022-11-27T07:09:12.953Z,100075.69
2022-11-27T07:11:39.830Z,100075.69
2022-11-27T07:14:07.469Z,100076.59
2022-11-27T07:16:36.518Z,100083.53
2022-11-27T07:19:06.488Z,100078.38
2022-11-27T07:21:34.004Z,100075.78
2022-11-27T07:24:01.295Z,100073.19
2022-11-27T07:26:29.929Z,100075.81
2022-11-27T07:28:57.400Z,100074.06
2022-11-27T07:31:28.258Z,100073.22
2022-11-27T07:33:55.881Z,100072.38
2022-11-27T07:36:28.169Z,100073.28
2022-11-27T07:38:55.669Z,100070.69
2022-11-27T07:41:22.512Z,100071.63
2022-11-27T07:43:49.752Z,100069.03
2022-11-27T07:46:19.495Z,100069.94
2022-11-27T07:48:46.658Z,100072.56
2022-11-27T07:51:15.750Z,100075.16
2022-11-27T07:53:43.328Z,100076.91
2022-11-27T07:56:12.779Z,100070.88
2022-11-27T07:58:40.374Z,100070.91
2022-11-27T08:01:09.511Z,100066.56
2022-11-27T08:03:37.104Z,100064.78
2022-11-27T08:06:04.457Z,100060.50
2022-11-27T08:08:31.538Z,100065.75
2022-11-27T08:10:58.296Z,100067.50
2022-11-27T08:13:25.344Z,100067.53
2022-11-27T08:15:52.140Z,100055.44
2022-11-27T08:18:19.517Z,100059.84
2022-11-27T08:20:46.324Z,100058.16
2022-11-27T08:23:13.367Z,100055.56
2022-11-27T08:25:40.158Z,100048.69
2022-11-27T08:28:07.288Z,100057.38
2022-11-27T08:30:34.072Z,100056.53
2022-11-27T08:33:01.313Z,100060.88
2022-11-27T08:35:28.254Z,100061.75
2022-11-27T08:37:55.572Z,100062.66
2022-11-27T08:40:22.396Z,100067.88
2022-11-27T08:42:49.549Z,100058.34
2022-11-27T08:45:16.400Z,100060.94
2022-11-27T08:47:43.618Z,100056.56
2022-11-27T08:50:10.818Z,100063.53
2022-11-27T08:52:37.978Z,100057.47
2022-11-27T08:55:05.271Z,100054.06
2022-11-27T08:57:32.333Z,100056.69
2022-11-27T08:59:59.146Z,100052.34
2022-11-27T09:02:26.168Z,100052.38
2022-11-27T09:04:52.985Z,100035.88
2022-11-27T09:07:20.121Z,100036.75
2022-11-27T09:09:47.037Z,100037.63
2022-11-27T09:12:14.174Z,100034.16
2022-11-27T09:14:41.293Z,100033.31
2022-11-27T09:17:08.637Z,100043.72
2022-11-27T09:19:35.471Z,100045.47
2022-11-27T09:22:02.677Z,100042.00
2022-11-27T09:24:29.428Z,100045.50
2022-11-27T09:26:56.516Z,100052.47
2022-11-27T09:29:23.371Z,100051.63
2022-11-27T09:31:51.026Z,100054.22
2022-11-27T09:34:18.330Z,100054.19
2022-11-27T09:36:45.454Z,100049.00
2022-11-27T09:39:13.842Z,100051.56
2022-11-27T09:41:51.026Z,100054.16
2022-11-27T09:44:23.696Z,100048.94
2022-11-27T09:46:51.718Z,100054.16
2022-11-27T09:49:33.621Z,100053.34
2022-11-27T09:52:21.114Z,100047.25
2022-11-27T09:55:02.359Z,100053.34
2022-11-27T09:57:34.193Z,100042.03
2022-11-27T10:00:27.707Z,100041.19
2022-11-27T10:02:55.126Z,100047.25
2022-11-27T10:05:32.610Z,100036.84
2022-11-27T10:08:31.511Z,100043.81
2022-11-27T10:11:19.800Z,100038.63
2022-11-27T10:13:55.658Z,100036.00
2022-11-27T10:16:44.845Z,100032.53
2022-11-27T10:19:21.132Z,100031.69
2022-11-27T10:21:52.983Z,100019.53
2022-11-27T10:24:27.353Z,100015.16
2022-11-27T10:26:59.100Z,100013.44
2022-11-27T10:29:35.103Z,100013.44
2022-11-27T10:32:26.750Z,100012.59
2022-11-27T10:35:15.556Z,100015.19
2022-11-27T10:38:10.740Z,100016.06
2022-11-27T10:40:42.935Z,100014.31
2022-11-27T10:43:20.366Z,100011.72
2022-11-27T10:46:02.588Z,100002.16
2022-11-27T10:48:30.045Z,100003.00
2022-11-27T10:50:57.446Z,100008.25
2022-11-27T10:53:30.018Z,100008.22
2022-11-27T10:56:12.592Z,100008.22
2022-11-27T10:58:57.216Z,100008.22
2022-11-27T11:01:27.209Z,99998.66
2022-11-27T11:04:31.280Z,100003.91
2022-11-27T11:06:55.693Z,100005.63
2022-11-27T11:09:31.211Z,100007.38
2022-11-27T11:12:18.992Z,100008.22
2022-11-27T11:14:55.861Z,99995.19
2022-11-27T11:17:27.770Z,100001.28
2022-11-27T11:19:54.704Z,100001.28
2022-11-27T11:22:22.325Z,99998.66
2022-11-27T11:24:53.636Z,99994.31
2022-11-27T11:27:23.345Z,99987.34
2022-11-27T11:29:51.825Z,99994.28
2022-11-27T11:32:29.636Z,100002.97
2022-11-27T11:35:02.950Z,99990.81
2022-11-27T11:37:39.976Z,99995.19
2022-11-27T11:40:11.953Z,99994.28
2022-11-27T11:42:55.718Z,99996.91
2022-11-27T11:45:23.078Z,100003.84
2022-11-27T11:47:53.137Z,99997.75
2022-11-27T11:50:38.929Z,100003.88
2022-11-27T11:53:18.324Z,99998.63
2022-11-27T11:56:13.129Z,99999.53
2022-11-27T11:59:12.524Z,99998.66
2022-11-27T12:01:56.671Z,100003.00
2022-11-27T12:04:30.028Z,99998.66
2022-11-27T12:07:12.104Z,99996.91
2022-11-27T12:10:03.993Z,99996.94
2022-11-27T12:13:15.049Z,99998.66
2022-11-27T12:15:50.698Z,99996.91
2022-11-27T12:18:22.746Z,99989.94
2022-11-27T12:21:27.641Z,99988.19
2022-11-27T12:24:03.567Z,99989.09
2022-11-27T12:26:45.355Z,99986.44
2022-11-27T12:29:27.821Z,99989.06
2022-11-27T12:32:16.028Z,99989.06
2022-11-27T12:35:16.017Z,99988.19
2022-11-27T12:38:08.033Z,99985.56
2022-11-27T12:40:53.397Z,99984.72
2022-11-27T12:43:28.788Z,99992.53
2022-11-27T12:46:00.064Z,99994.28
2022-11-27T12:48:58.076Z,99988.16
2022-11-27T12:51:34.072Z,99988.19
2022-11-27T12:54:04.055Z,99987.31
2022-11-27T12:56:48.528Z,99989.06
2022-11-27T12:59:43.320Z,99983.84
2022-11-27T13:02:10.077Z,99982.97
2022-11-27T13:04:42.408Z,99983.84
2022-11-27T13:07:23.132Z,99970.81
2022-11-27T13:09:54.768Z,99983.00
2022-11-27T13:12:28.374Z,99974.31
2022-11-27T13:15:02.748Z,99983.03
2022-11-27T13:17:42.611Z,99975.19
2022-11-27T13:20:17.929Z,99975.19
2022-11-27T13:22:46.931Z,99984.75
2022-11-27T13:25:15.058Z,99977.81
2022-11-27T13:27:46.700Z,99976.94
2022-11-27T13:30:24.158Z,99971.72
2022-11-27T13:32:55.091Z,99962.16
2022-11-27T13:35:29.089Z,99966.50
2022-11-27T13:38:03.457Z,99964.78
2022-11-27T13:40:36.971Z,99958.69
2022-11-27T13:43:06.672Z,99961.28
2022-11-27T13:45:37.150Z,99957.81
2022-11-27T13:48:25.279Z,99963.88
2022-11-27T13:50:54.271Z,99958.66
2022-11-27T13:53:34.539Z,99959.56
2022-11-27T13:56:01.948Z,99962.16
2022-11-27T13:58:39.204Z,99960.44
2022-11-27T14:01:18.653Z,99965.63
2022-11-27T14:03:45.473Z,99962.16
2022-11-27T14:06:31.857Z,99963.91
2022-11-27T14:09:04.905Z,99964.78
2022-11-27T14:11:37.095Z,99957.81
2022-11-27T14:14:14.966Z,99956.94
2022-11-27T14:16:42.715Z,99956.06
2022-11-27T14:19:42.231Z,99953.47
2022-11-27T14:22:17.149Z,99955.19
2022-11-27T14:24:46.000Z,99952.59
2022-11-27T14:27:24.886Z,99957.78
2022-11-27T14:29:52.464Z,99956.94
2022-11-27T14:32:21.231Z,99960.38
2022-11-27T14:34:48.828Z,99964.72
2022-11-27T14:37:23.484Z,99960.41
2022-11-27T14:39:50.267Z,99951.72
2022-11-27T14:42:29.059Z,99955.19
2022-11-27T14:45:06.732Z,99958.66
2022-11-27T14:47:35.574Z,99947.34
2022-11-27T14:50:04.093Z,99956.06
2022-11-27T14:52:31.616Z,99951.69
2022-11-27T14:54:59.546Z,99950.84
2022-11-27T14:57:29.064Z,99951.72
2022-11-27T15:00:05.194Z,99948.22
2022-11-27T15:02:32.705Z,99947.34
2022-11-27T15:05:06.368Z,99955.19
2022-11-27T15:07:45.199Z,99949.09
2022-11-27T15:10:29.328Z,99955.16
2022-11-27T15:12:57.025Z,99953.41
2022-11-27T15:15:29.077Z,99950.78
2022-11-27T15:18:02.550Z,99947.31
2022-11-27T15:20:42.490Z,99950.75
2022-11-27T15:23:26.663Z,99945.53
2022-11-27T15:26:07.301Z,99948.13
2022-11-27T15:28:43.362Z,99946.41
2022-11-27T15:31:23.922Z,99943.78
2022-11-27T15:33:58.690Z,99950.72
2022-11-27T15:36:25.716Z,99950.72
2022-11-27T15:39:03.585Z,99935.09
2022-11-27T15:41:31.004Z,99937.69
2022-11-27T15:43:58.194Z,99941.16
2022-11-27T15:46:34.376Z,99940.28
2022-11-27T15:49:01.388Z,99932.44
2022-11-27T15:51:29.194Z,99939.41
2022-11-27T15:53:56.230Z,99939.41
2022-11-27T15:56:23.038Z,99936.78
2022-11-27T15:58:50.150Z,99937.66
2022-11-27T16:01:16.982Z,99935.91
2022-11-27T16:03:44.143Z,99940.22
2022-11-27T16:06:10.892Z,99942.81
2022-11-27T16:08:37.978Z,99941.09
2022-11-27T16:11:07.748Z,99938.50
2022-11-27T16:13:34.851Z,99935.03
2022-11-27T16:16:03.965Z,99932.41
2022-11-27T16:18:31.360Z,99930.69
2022-11-27T16:21:03.876Z,99930.69
2022-11-27T16:23:31.225Z,99927.22
2022-11-27T16:25:58.327Z,99931.56
2022-11-27T16:28:27.017Z,99925.47
2022-11-27T16:30:58.861Z,99922.84
2022-11-27T16:33:27.191Z,99923.75
2022-11-27T16:35:54.222Z,99921.16
2022-11-27T16:38:21.662Z,99925.47
2022-11-27T16:40:49.777Z,99918.50
2022-11-27T16:43:17.273Z,99915.88
2022-11-27T16:45:44.138Z,99918.50
2022-11-27T16:48:11.222Z,99917.63
2022-11-27T16:50:37.974Z,99908.06
2022-11-27T16:53:04.992Z,99908.97
2022-11-27T16:55:32.040Z,99914.13
2022-11-27T16:57:59.121Z,99912.41
2022-11-27T17:00:26.089Z,99908.91
2022-11-27T17:02:53.124Z,99913.25
2022-11-27T17:05:19.987Z,99914.13
2022-11-27T17:07:47.207Z,99915.00
2022-11-27T17:10:14.132Z,99905.44
2022-11-27T17:12:41.176Z,99903.72
2022-11-27T17:15:09.488Z,99902.84
2022-11-27T17:17:40.356Z,99908.03
2022-11-27T17:20:07.679Z,99906.31
2022-11-27T17:22:34.738Z,99912.38
2022-11-27T17:25:01.603Z,99902.81
2022-11-27T17:27:28.674Z,99898.53
2022-11-27T17:29:55.501Z,99898.53
2022-11-27T17:32:22.757Z,99904.59
2022-11-27T17:34:49.619Z,99900.25
2022-11-27T17:37:16.924Z,99893.31
2022-11-27T17:39:44.025Z,99900.25
2022-11-27T17:42:14.475Z,99895.94
2022-11-27T17:44:43.072Z,99894.19
2022-11-27T17:47:10.220Z,99892.47
2022-11-27T17:49:37.042Z,99894.22
2022-11-27T17:52:06.498Z,99896.81
2022-11-27T17:54:33.950Z,99894.25
2022-11-27T17:57:01.009Z,99895.94
2022-11-27T17:59:27.877Z,99893.38
2022-11-27T18:01:55.027Z,99889.88
2022-11-27T18:04:21.960Z,99887.25
2022-11-27T18:06:49.089Z,99885.53
2022-11-27T18:09:15.839Z,99892.47
2022-11-27T18:11:42.920Z,99888.97
2022-11-27T18:14:13.570Z,99886.34
2022-11-27T18:16:41.436Z,99878.56
2022-11-27T18:19:10.791Z,99880.31
2022-11-27T18:21:38.348Z,99878.53
2022-11-27T18:24:24.427Z,99887.22
2022-11-27T18:27:11.323Z,99877.66
2022-11-27T18:29:40.736Z,99877.69
2022-11-27T18:32:08.769Z,99869.00
2022-11-27T18:34:35.664Z,99872.44
2022-11-27T18:37:04.150Z,99869.84
2022-11-27T18:39:31.768Z,99867.22
2022-11-27T18:41:59.122Z,99866.34
2022-11-27T18:44:26.803Z,99861.13
2022-11-27T18:46:53.968Z,99862.88
2022-11-27T18:49:22.929Z,99871.53
2022-11-27T18:51:54.637Z,99867.19
2022-11-27T18:54:21.911Z,99863.72
2022-11-27T18:56:49.060Z,99862.00
2022-11-27T18:59:15.864Z,99859.41
2022-11-27T19:01:43.038Z,99868.94
2022-11-27T19:04:11.208Z,99856.78
2022-11-27T19:06:39.339Z,99852.44
2022-11-27T19:09:06.933Z,99850.69
2022-11-27T19:11:35.090Z,99854.22
2022-11-27T19:14:02.087Z,99854.19
2022-11-27T19:16:34.608Z,99851.59
2022-11-27T19:19:03.347Z,99858.56
2022-11-27T19:21:32.077Z,99854.22
2022-11-27T19:24:01.150Z,99858.56
2022-11-27T19:26:31.440Z,99856.78
2022-11-27T19:29:00.373Z,99850.72
2022-11-27T19:31:30.143Z,99848.97
2022-11-27T19:33:59.154Z,99852.44
2022-11-27T19:36:28.548Z,99846.38
2022-11-27T19:39:04.914Z,99840.28
2022-11-27T19:41:32.099Z,99848.09
2022-11-27T19:44:00.934Z,99842.91
2022-11-27T19:46:29.152Z,99848.06
2022-11-27T19:48:57.497Z,99839.41
2022-11-27T19:51:26.102Z,99830.75
2022-11-27T19:53:53.580Z,99837.66
2022-11-27T19:56:21.084Z,99840.28
2022-11-27T19:58:47.853Z,99832.50
2022-11-27T20:01:18.322Z,99837.72
2022-11-27T20:03:46.057Z,99841.16
2022-11-27T20:06:20.259Z,99836.00
2022-11-27T20:08:49.174Z,99835.94
2022-11-27T20:11:17.941Z,99827.28
2022-11-27T20:13:45.004Z,99829.88
2022-11-27T20:16:15.852Z,99835.06
2022-11-27T20:18:43.088Z,99824.66
2022-11-27T20:21:13.493Z,99823.75
2022-11-27T20:23:41.277Z,99822.88
2022-11-27T20:26:10.934Z,99821.13
2022-11-27T20:28:41.244Z,99818.53
2022-11-27T20:31:14.245Z,99815.06
2022-11-27T20:33:41.164Z,99815.06
2022-11-27T20:36:13.595Z,99809.00
2022-11-27T20:38:40.427Z,99802.91
2022-11-27T20:41:09.482Z,99801.19
2022-11-27T20:43:37.348Z,99802.06
2022-11-27T20:46:04.956Z,99802.91
2022-11-27T20:48:31.868Z,99796.81
2022-11-27T20:51:09.111Z,99799.41
2022-11-27T20:53:36.521Z,99803.75
2022-11-27T20:56:05.901Z,99807.19
2022-11-27T20:58:34.208Z,99802.00
2022-11-27T21:01:01.371Z,99806.28
2022-11-27T21:03:29.503Z,99797.63
2022-11-27T21:05:56.587Z,99802.84
2022-11-27T21:08:23.470Z,99801.09
2022-11-27T21:10:50.697Z,99804.59
2022-11-27T21:13:17.914Z,99798.53
2022-11-27T21:15:46.814Z,99808.94
2022-11-27T21:18:14.402Z,99806.34
2022-11-27T21:20:42.411Z,99801.13
2022-11-27T21:23:09.221Z,99798.53
2022-11-27T21:25:38.771Z,99791.63
2022-11-27T21:28:05.538Z,99794.25
2022-11-27T21:30:32.708Z,99796.84
2022-11-27T21:32:59.528Z,99792.50
2022-11-27T21:35:31.568Z,99794.25
2022-11-27T21:37:59.536Z,99797.72
2022-11-27T21:40:26.637Z,99800.31
2022-11-27T21:42:53.452Z,99787.31
2022-11-27T21:45:20.528Z,99789.06
2022-11-27T21:47:47.614Z,99784.75
2022-11-27T21:50:14.825Z,99788.22
2022-11-27T21:52:41.548Z,99785.63
2022-11-27T21:55:12.050Z,99789.06
2022-11-27T21:57:39.224Z,99782.13
2022-11-27T22:00:07.098Z,99791.66
2022-11-27T22:02:33.942Z,99783.00
2022-11-27T22:05:01.060Z,99785.63
2022-11-27T22:07:27.897Z,99790.81
2022-11-27T22:09:55.031Z,99784.75
2022-11-27T22:12:21.878Z,99776.13
2022-11-27T22:14:52.089Z,99776.13
2022-11-27T22:17:19.296Z,99784.78
2022-11-27T22:19:46.320Z,99783.94
2022-11-27T22:22:13.086Z,99782.22
2022-11-27T22:24:40.521Z,99783.94
2022-11-27T22:27:07.556Z,99781.31
2022-11-27T22:29:34.794Z,99772.66
2022-11-27T22:32:01.841Z,99777.84
2022-11-27T22:34:28.853Z,99772.66
2022-11-27T22:36:55.833Z,99783.03
2022-11-27T22:39:22.905Z,99774.38
2022-11-27T22:41:49.713Z,99776.06
2022-11-27T22:44:19.438Z,99775.22
2022-11-27T22:46:46.313Z,99767.44
2022-11-27T22:49:15.704Z,99763.09
2022-11-27T22:51:42.638Z,99766.53
2022-11-27T22:54:13.057Z,99760.47
2022-11-27T22:56:40.110Z,99755.28
2022-11-27T23:01:54.899Z,99750.03
2022-11-27T23:04:22.139Z,99751.75
2022-11-27T23:06:48.928Z,99750.91
2022-11-27T23:09:18.166Z,99743.09
2022-11-27T23:11:45.772Z,99754.34
2022-11-27T23:14:13.009Z,99747.41
2022-11-27T23:16:40.200Z,99744.81
2022-11-27T23:19:07.349Z,99740.47
2022-11-27T23:21:37.570Z,99737.03
2022-11-27T23:24:06.460Z,99736.13
2022-11-27T23:26:33.661Z,99733.53
2022-11-27T23:29:00.944Z,99739.59
2022-11-27T23:31:31.200Z,99739.56
2022-11-27T23:34:02.017Z,99739.56
2022-11-27T23:36:30.433Z,99732.66
2022-11-27T23:39:00.796Z,99727.47
2022-11-27T23:41:27.925Z,99725.72
2022-11-27T23:43:55.812Z,99729.19
2022-11-27T23:46:26.791Z,99723.97
2022-11-27T23:48:55.062Z,99723.13
2022-11-27T23:51:24.765Z,99721.38
2022-11-27T23:53:52.818Z,99734.38
2022-11-27T23:56:22.052Z,99723.97
2022-11-27T23:58:49.501Z,99729.16
